Terminal Aerodrome Forecast
Issued by NWS Detroit/Pontiac, MI

Home | Current Version | Previous Version | Text Only | Print | Product List | Glossary On
Versions: 1 2 3 4 5 6 7 8 9 10 11 12 13 14 15 16 17 18 19 20 21 22 23 24 25 26 27 28 29 30 31 32 33 34 35 36 37 38 39 40 41 42 43 44
000
FTUS43 KDTX 031735
TAFDTW
TAF
KDTW 031735Z 0318/0424 28015G23KT P6SM FEW040 BKN200
     FM032300 32007KT P6SM SCT045
     FM040300 04007KT P6SM SKC
     FM041000 VRB03KT 6SM BR BKN250
     FM041800 17005KT P6SM BKN250=

USA.gov is the U.S. government's official web portal to all federal, state and local government web resources and services.